createdAt,value
2022-08-16T00:02:12.999Z,19.27
2022-08-16T00:04:59.641Z,19.20
2022-08-16T00:07:45.448Z,19.17
2022-08-16T00:10:34.529Z,19.15
2022-08-16T00:13:22.145Z,19.16
2022-08-16T00:17:01.026Z,19.15
2022-08-16T00:19:00.722Z,19.13
2022-08-16T00:21:53.164Z,19.15
2022-08-16T00:24:37.273Z,19.21
2022-08-16T00:27:24.953Z,19.25
2022-08-16T00:30:25.031Z,19.25
2022-08-16T00:33:04.192Z,19.25
2022-08-16T00:35:52.369Z,19.24
2022-08-16T00:38:43.739Z,19.24
2022-08-16T00:41:31.049Z,19.20
2022-08-16T00:44:22.120Z,19.16
2022-08-16T00:47:15.342Z,19.11
2022-08-16T00:50:02.816Z,19.04
2022-08-16T00:52:53.577Z,18.96
2022-08-16T00:55:42.672Z,18.92
2022-08-16T00:58:32.275Z,18.88
2022-08-16T01:01:20.836Z,18.76
2022-08-16T01:04:29.272Z,18.69
2022-08-16T01:07:01.172Z,18.60
2022-08-16T01:09:49.120Z,18.55
2022-08-16T01:12:37.361Z,18.52
2022-08-16T01:15:26.824Z,18.52
2022-08-16T01:18:40.784Z,18.54
2022-08-16T01:21:14.049Z,18.63
2022-08-16T01:24:53.378Z,18.66
2022-08-16T01:27:20.775Z,18.67
2022-08-16T01:30:19.900Z,18.71
2022-08-16T01:33:14.424Z,18.75
2022-08-16T01:36:09.355Z,18.77
2022-08-16T01:38:57.344Z,18.73
2022-08-16T01:41:46.227Z,18.75
2022-08-16T01:44:37.668Z,18.72
2022-08-16T01:47:22.543Z,18.67
2022-08-16T01:50:42.220Z,18.57
2022-08-16T01:52:59.857Z,18.53
2022-08-16T01:55:53.951Z,18.45
2022-08-16T01:58:37.671Z,18.38
2022-08-16T02:01:28.399Z,18.38
2022-08-16T02:04:48.267Z,18.37
2022-08-16T02:07:07.671Z,18.35
2022-08-16T02:09:57.052Z,18.35
2022-08-16T02:12:51.171Z,18.34
2022-08-16T02:15:42.650Z,18.35
2022-08-16T02:18:26.023Z,18.36
2022-08-16T02:21:15.921Z,18.40
2022-08-16T02:24:03.071Z,18.44
2022-08-16T02:26:53.056Z,18.44
2022-08-16T02:29:42.991Z,18.40
2022-08-16T02:32:49.106Z,18.34
2022-08-16T02:35:23.178Z,18.29
2022-08-16T02:38:09.191Z,18.19
2022-08-16T02:40:57.392Z,18.15
2022-08-16T02:43:47.171Z,18.07
2022-08-16T02:46:36.633Z,18.01
2022-08-16T02:49:32.281Z,17.96
2022-08-16T02:52:24.371Z,17.92
2022-08-16T02:55:04.611Z,17.94
2022-08-16T02:57:53.875Z,17.95
2022-08-16T03:00:41.103Z,17.97
2022-08-16T03:04:40.583Z,18.00
2022-08-16T03:06:41.300Z,18.04
2022-08-16T03:09:13.865Z,18.08
2022-08-16T03:12:01.004Z,18.13
2022-08-16T03:14:49.159Z,18.18
2022-08-16T03:17:36.679Z,18.19
2022-08-16T03:20:32.573Z,18.16
2022-08-16T03:23:14.991Z,18.05
2022-08-16T03:26:04.472Z,17.98
2022-08-16T03:28:51.832Z,17.90
2022-08-16T03:31:40.655Z,17.87
2022-08-16T03:34:30.224Z,17.86
2022-08-16T03:37:17.631Z,17.86
2022-08-16T03:40:06.965Z,17.85
2022-08-16T03:43:18.707Z,17.83
2022-08-16T03:45:44.384Z,17.79
2022-08-16T03:48:39.731Z,17.79
2022-08-16T03:51:25.348Z,17.84
2022-08-16T03:54:13.346Z,17.93
2022-08-16T03:57:00.376Z,18.05
2022-08-16T03:59:47.847Z,18.13
2022-08-16T04:02:37.032Z,18.18
2022-08-16T04:05:26.584Z,18.26
2022-08-16T04:08:23.219Z,18.37
2022-08-16T04:11:05.106Z,18.43
2022-08-16T04:14:01.060Z,18.42
2022-08-16T04:16:42.735Z,18.46
2022-08-16T04:19:31.789Z,18.54
2022-08-16T04:22:19.912Z,18.60
2022-08-16T04:25:09.241Z,18.66
2022-08-16T04:27:58.526Z,18.73
2022-08-16T04:30:47.863Z,18.82
2022-08-16T04:33:36.600Z,18.89
2022-08-16T04:36:24.513Z,18.98
2022-08-16T04:39:12.336Z,19.07
2022-08-16T04:42:01.463Z,19.13
2022-08-16T04:44:53.508Z,19.16
2022-08-16T04:47:40.183Z,19.15
2022-08-16T04:50:30.459Z,19.19
2022-08-16T04:53:19.226Z,19.23
2022-08-16T04:56:11.519Z,19.32
2022-08-16T04:58:57.692Z,19.47
2022-08-16T05:01:58.004Z,19.65
2022-08-16T05:04:34.696Z,19.87
2022-08-16T05:07:21.681Z,20.13
2022-08-16T05:10:19.596Z,20.36
2022-08-16T05:13:01.895Z,20.57
2022-08-16T05:15:50.248Z,20.73
2022-08-16T05:18:39.784Z,20.93
2022-08-16T05:21:35.708Z,21.13
2022-08-16T05:24:22.074Z,21.32
2022-08-16T05:27:11.503Z,21.48
2022-08-16T05:30:34.085Z,21.61
2022-08-16T05:32:49.462Z,21.77
2022-08-16T05:35:37.072Z,21.83
2022-08-16T05:38:32.922Z,21.87
2022-08-16T05:41:18.757Z,21.93
2022-08-16T05:44:06.152Z,22.09
2022-08-16T05:46:57.544Z,22.19
2022-08-16T05:49:50.675Z,22.30
2022-08-16T05:52:36.536Z,22.43
2022-08-16T05:55:23.772Z,22.65
2022-08-16T05:58:31.419Z,22.86
2022-08-16T06:01:00.697Z,23.09
2022-08-16T06:03:49.496Z,23.35
2022-08-16T06:06:37.073Z,23.58
2022-08-16T06:09:42.591Z,23.74
2022-08-16T06:12:27.177Z,23.79
2022-08-16T06:15:10.784Z,23.84
2022-08-16T06:17:59.352Z,23.86
2022-08-16T06:20:55.668Z,24.01
2022-08-16T06:23:37.281Z,24.25
2022-08-16T06:26:37.002Z,24.33
2022-08-16T06:29:14.390Z,24.32
2022-08-16T06:32:05.657Z,24.27
2022-08-16T06:35:02.038Z,24.28
2022-08-16T06:37:51.429Z,24.34
2022-08-16T06:40:49.161Z,24.45
2022-08-16T06:46:32.057Z,24.60
2022-08-16T06:49:17.761Z,24.52
2022-08-16T06:52:05.274Z,24.45
2022-08-16T06:54:55.816Z,24.46
2022-08-16T06:57:43.992Z,24.59
2022-08-16T07:00:32.040Z,24.69
2022-08-16T07:03:28.287Z,24.72
2022-08-16T07:06:09.448Z,24.78
2022-08-16T07:08:58.376Z,24.78
2022-08-16T07:11:47.678Z,24.89
2022-08-16T07:14:35.782Z,25.04
2022-08-16T07:17:24.274Z,25.10
2022-08-16T07:20:35.236Z,25.22
2022-08-16T07:23:02.684Z,25.40
2022-08-16T07:25:51.793Z,25.39
2022-08-16T07:28:39.817Z,25.41
2022-08-16T07:31:37.775Z,25.47
2022-08-16T07:34:17.135Z,25.47
2022-08-16T07:37:07.929Z,25.46
2022-08-16T07:39:57.245Z,25.60
2022-08-16T07:42:45.544Z,25.87
2022-08-16T07:45:33.777Z,26.03
2022-08-16T07:48:22.277Z,26.25
2022-08-16T07:51:11.641Z,26.49
2022-08-16T07:54:02.598Z,26.43
2022-08-16T07:56:48.846Z,26.56
2022-08-16T07:59:42.889Z,26.91
2022-08-16T08:02:27.392Z,27.24
2022-08-16T08:05:15.176Z,27.32
2022-08-16T08:08:11.460Z,27.48
2022-08-16T08:10:52.480Z,27.82
2022-08-16T08:13:42.251Z,28.16
2022-08-16T08:16:30.034Z,28.37
2022-08-16T08:19:18.607Z,28.32
2022-08-16T08:22:10.032Z,28.31
2022-08-16T08:24:59.705Z,28.43
2022-08-16T08:27:49.058Z,28.65
2022-08-16T08:30:51.594Z,29.04
2022-08-16T08:33:27.233Z,29.18
2022-08-16T08:36:21.950Z,29.04
2022-08-16T08:39:13.207Z,28.76
2022-08-16T08:41:57.321Z,28.76
2022-08-16T08:44:45.168Z,28.88
2022-08-16T08:47:34.192Z,28.77
2022-08-16T08:50:31.652Z,28.95
2022-08-16T08:53:11.823Z,28.94
2022-08-16T08:56:01.401Z,28.90
2022-08-16T08:58:53.877Z,29.15
2022-08-16T09:01:43.146Z,29.30
2022-08-16T09:04:29.596Z,29.41
2022-08-16T09:07:18.024Z,29.07
2022-08-16T09:10:20.318Z,28.77
2022-08-16T09:12:57.408Z,28.92
2022-08-16T09:15:44.977Z,28.92
2022-08-16T09:18:35.978Z,29.30
2022-08-16T09:21:31.597Z,29.52
2022-08-16T09:24:12.633Z,29.69
2022-08-16T09:27:01.532Z,29.77
2022-08-16T09:29:49.043Z,29.73
2022-08-16T09:32:39.513Z,29.73
2022-08-16T09:35:30.591Z,29.76
2022-08-16T09:38:31.227Z,29.86
2022-08-16T09:41:14.903Z,29.76
2022-08-16T09:44:02.269Z,29.61
2022-08-16T09:46:49.966Z,29.38
2022-08-16T09:49:41.169Z,29.13
2022-08-16T09:52:27.175Z,28.98
2022-08-16T09:55:15.257Z,28.84
2022-08-16T09:58:03.382Z,28.76
2022-08-16T10:00:53.226Z,28.87
2022-08-16T10:04:02.685Z,29.29
2022-08-16T10:06:33.989Z,29.48
2022-08-16T10:09:20.855Z,29.45
2022-08-16T10:12:26.983Z,29.26
2022-08-16T10:15:18.673Z,29.26
2022-08-16T10:19:00.121Z,29.68
2022-08-16T10:20:59.673Z,30.05
2022-08-16T10:23:48.897Z,30.49
2022-08-16T10:27:17.612Z,30.82
2022-08-16T10:29:25.842Z,30.86
2022-08-16T10:32:14.622Z,30.62
2022-08-16T10:35:03.924Z,30.26
2022-08-16T10:37:52.127Z,30.12
2022-08-16T10:40:40.200Z,30.10
2022-08-16T10:43:31.038Z,30.43
2022-08-16T10:46:39.816Z,30.78
2022-08-16T10:49:07.528Z,31.16
2022-08-16T10:52:01.404Z,31.39
2022-08-16T10:55:43.720Z,31.45
2022-08-16T10:57:34.968Z,31.24
2022-08-16T11:00:23.053Z,30.86
2022-08-16T11:06:00.864Z,30.33
2022-08-16T11:09:20.862Z,30.30
2022-08-16T11:12:13.739Z,30.48
2022-08-16T11:14:28.098Z,30.78
2022-08-16T11:22:57.805Z,31.64
2022-08-16T11:38:47.873Z,30.83
2022-08-16T11:41:49.253Z,31.27
2022-08-16T11:44:56.316Z,31.25
2022-08-16T11:48:18.994Z,31.60
2022-08-16T11:51:06.880Z,31.46
2022-08-16T11:53:54.532Z,31.17
2022-08-16T11:56:53.115Z,31.05
2022-08-16T11:59:39.761Z,30.87
2022-08-16T12:02:32.583Z,31.09
2022-08-16T12:05:17.529Z,31.52
2022-08-16T12:08:06.759Z,31.90
2022-08-16T12:10:55.416Z,32.07
2022-08-16T12:13:46.891Z,32.28
2022-08-16T12:16:36.922Z,32.12
2022-08-16T12:19:33.769Z,31.73
2022-08-16T12:22:18.702Z,31.13
2022-08-16T12:25:09.065Z,30.43
2022-08-16T12:27:57.148Z,29.88
2022-08-16T12:30:46.952Z,29.46
2022-08-16T12:33:44.692Z,29.13
2022-08-16T12:36:29.959Z,28.87
2022-08-16T12:39:17.832Z,28.69
2022-08-16T12:42:08.545Z,28.50
2022-08-16T12:44:56.287Z,28.38
2022-08-16T12:48:29.479Z,28.19
2022-08-16T12:50:50.905Z,27.85
2022-08-16T12:53:39.988Z,27.85
2022-08-16T12:56:31.517Z,27.64
2022-08-16T12:59:20.943Z,27.37
2022-08-16T13:02:12.534Z,27.07
2022-08-16T13:04:57.513Z,26.70
2022-08-16T13:07:51.649Z,26.38
2022-08-16T13:10:37.654Z,26.24
2022-08-16T13:13:26.495Z,26.08
2022-08-16T13:16:20.829Z,26.07
2022-08-16T13:19:05.552Z,26.11
2022-08-16T13:21:54.832Z,26.17
2022-08-16T13:24:43.056Z,26.28
2022-08-16T13:28:10.804Z,26.37
2022-08-16T13:30:36.553Z,26.42
2022-08-16T13:33:15.796Z,26.44
2022-08-16T13:36:02.464Z,26.51
2022-08-16T13:38:49.960Z,26.62
2022-08-16T13:41:39.658Z,26.78
2022-08-16T13:44:30.915Z,26.90
2022-08-16T13:47:16.679Z,27.05
2022-08-16T13:50:05.538Z,27.17
2022-08-16T13:52:55.177Z,27.31
2022-08-16T13:55:44.378Z,27.38
2022-08-16T13:58:37.543Z,27.56
2022-08-16T14:01:22.335Z,27.77
2022-08-16T14:04:09.856Z,28.03
2022-08-16T14:06:59.975Z,28.23
2022-08-16T14:09:47.912Z,28.42
2022-08-16T14:12:37.864Z,28.58
2022-08-16T14:15:25.584Z,29.04
2022-08-16T14:18:17.168Z,29.04
2022-08-16T14:21:02.922Z,29.29
2022-08-16T14:23:52.064Z,29.54
2022-08-16T14:26:40.024Z,29.81
2022-08-16T14:29:28.421Z,30.12
2022-08-16T14:32:29.093Z,30.44
2022-08-16T14:35:08.350Z,30.72
2022-08-16T14:37:57.224Z,31.05
2022-08-16T14:40:47.117Z,31.32
2022-08-16T14:43:34.328Z,31.57
2022-08-16T14:46:22.261Z,31.76
2022-08-16T14:49:09.977Z,31.87
2022-08-16T14:52:03.561Z,31.88
2022-08-16T14:54:53.546Z,31.70
2022-08-16T14:57:42.175Z,31.51
2022-08-16T15:00:33.945Z,31.25
2022-08-16T15:03:23.363Z,30.97
2022-08-16T15:06:13.224Z,30.71
2022-08-16T15:09:00.761Z,30.36
2022-08-16T15:11:48.177Z,30.07
2022-08-16T15:14:38.575Z,29.83
2022-08-16T15:17:34.033Z,29.59
2022-08-16T15:20:19.543Z,29.35
2022-08-16T15:23:08.769Z,29.10
2022-08-16T15:26:02.829Z,28.87
2022-08-16T15:28:45.544Z,28.64
2022-08-16T15:31:33.175Z,28.43
2022-08-16T15:34:26.033Z,28.20
2022-08-16T15:37:11.968Z,27.99
2022-08-16T15:40:00.295Z,27.71
2022-08-16T15:43:03.070Z,27.50
2022-08-16T15:46:04.072Z,27.36
2022-08-16T15:48:54.521Z,27.25
2022-08-16T15:51:45.487Z,27.17
2022-08-16T15:57:49.326Z,27.04
2022-08-16T16:00:38.850Z,26.98
2022-08-16T16:03:28.529Z,26.94
2022-08-16T16:06:19.159Z,26.89
2022-08-16T16:09:08.095Z,26.82
2022-08-16T16:11:58.687Z,26.73
2022-08-16T16:14:47.769Z,26.64
2022-08-16T16:17:36.201Z,26.53
2022-08-16T16:20:27.105Z,26.41
2022-08-16T16:23:17.461Z,26.31
2022-08-16T16:26:06.560Z,26.23
2022-08-16T16:29:07.786Z,26.20
2022-08-16T16:31:59.769Z,26.16
2022-08-16T16:34:36.087Z,26.08
2022-08-16T16:37:23.463Z,26.01
2022-08-16T16:40:13.162Z,25.96
2022-08-16T16:43:02.902Z,25.92
2022-08-16T16:45:50.986Z,25.89
2022-08-16T16:48:39.949Z,25.82
2022-08-16T16:51:28.134Z,25.70
2022-08-16T16:54:27.927Z,25.58
2022-08-16T16:57:06.263Z,25.43
2022-08-16T16:59:55.793Z,25.29
2022-08-16T17:02:53.903Z,25.17
2022-08-16T17:05:32.594Z,25.07
2022-08-16T17:08:22.585Z,25.01
2022-08-16T17:11:12.815Z,24.96
2022-08-16T17:14:00.583Z,24.92
2022-08-16T17:16:48.096Z,24.89
2022-08-16T17:19:40.333Z,24.83
2022-08-16T17:22:32.798Z,24.73
2022-08-16T17:25:15.497Z,24.62
2022-08-16T17:28:58.795Z,24.50
2022-08-16T17:30:52.888Z,24.39
2022-08-16T17:33:54.722Z,24.29
2022-08-16T17:36:36.506Z,24.16
2022-08-16T17:39:20.664Z,24.03
2022-08-16T17:42:16.000Z,23.89
2022-08-16T17:45:03.994Z,23.82
2022-08-16T17:47:52.369Z,23.72
2022-08-16T17:50:40.960Z,23.61
2022-08-16T17:53:28.880Z,23.44
2022-08-16T17:56:17.615Z,23.29
2022-08-16T17:59:05.696Z,23.14
2022-08-16T18:01:53.741Z,23.00
2022-08-16T18:04:49.395Z,22.87
2022-08-16T18:07:31.575Z,22.78
2022-08-16T18:10:31.261Z,22.68
2022-08-16T18:13:11.673Z,22.55
2022-08-16T18:15:59.697Z,22.45
2022-08-16T18:18:47.456Z,22.37
2022-08-16T18:21:52.898Z,22.29
2022-08-16T18:24:40.793Z,22.17
2022-08-16T18:27:29.954Z,22.02
2022-08-16T18:30:18.043Z,21.89
2022-08-16T18:33:05.913Z,21.74
2022-08-16T18:35:57.539Z,21.64
2022-08-16T18:38:42.952Z,21.55
2022-08-16T18:41:30.704Z,21.50
2022-08-16T18:44:25.747Z,21.45
2022-08-16T18:47:08.394Z,21.38
2022-08-16T18:49:55.913Z,21.27
2022-08-16T18:52:52.610Z,21.17
2022-08-16T18:55:45.506Z,21.05
2022-08-16T18:58:36.393Z,20.92
2022-08-16T19:01:25.494Z,20.83
2022-08-16T19:04:47.827Z,20.77
2022-08-16T19:07:03.692Z,20.77
2022-08-16T19:09:51.153Z,20.76
2022-08-16T19:12:42.198Z,20.74
2022-08-16T19:15:30.188Z,20.70
2022-08-16T19:18:18.947Z,20.70
2022-08-16T19:21:09.425Z,20.64
2022-08-16T19:23:56.697Z,20.63
2022-08-16T19:26:45.366Z,20.62
2022-08-16T19:29:33.307Z,20.60
2022-08-16T19:32:27.635Z,20.53
2022-08-16T19:35:17.841Z,20.44
2022-08-16T19:38:07.147Z,20.30
2022-08-16T19:40:54.633Z,20.18
2022-08-16T19:43:42.198Z,20.11
2022-08-16T19:46:29.881Z,20.05
2022-08-16T19:49:20.803Z,19.99
2022-08-16T19:52:18.426Z,19.94
2022-08-16T19:55:08.307Z,19.88
2022-08-16T19:57:55.928Z,19.83
2022-08-16T20:00:44.064Z,19.80
2022-08-16T20:03:35.697Z,19.78
2022-08-16T20:06:37.943Z,19.77
2022-08-16T20:09:31.544Z,19.77
2022-08-16T20:12:31.529Z,19.77
2022-08-16T20:15:24.809Z,19.74
2022-08-16T20:18:21.258Z,19.71
2022-08-16T20:21:01.969Z,19.67
2022-08-16T20:23:50.987Z,19.63
2022-08-16T20:26:41.338Z,19.61
2022-08-16T20:29:30.546Z,19.52
2022-08-16T20:32:25.290Z,19.46
2022-08-16T20:35:12.338Z,19.40
2022-08-16T20:38:01.486Z,19.38
2022-08-16T20:40:49.100Z,19.36
2022-08-16T20:43:36.953Z,19.35
2022-08-16T20:46:24.809Z,19.35
2022-08-16T20:49:11.964Z,19.36
2022-08-16T20:52:00.003Z,19.38
2022-08-16T20:54:49.441Z,19.34
2022-08-16T20:57:38.201Z,19.26
2022-08-16T21:00:25.825Z,19.22
2022-08-16T21:03:14.731Z,19.18
2022-08-16T21:06:02.386Z,19.15
2022-08-16T21:08:53.843Z,19.10
2022-08-16T21:11:39.201Z,19.08
2022-08-16T21:14:27.017Z,19.06
2022-08-16T21:17:16.220Z,19.04
2022-08-16T21:20:03.838Z,19.00
2022-08-16T21:23:02.297Z,18.98
2022-08-16T21:25:58.881Z,18.98
2022-08-16T21:28:43.201Z,18.98
2022-08-16T21:31:28.297Z,18.98
2022-08-16T21:34:15.715Z,18.97
2022-08-16T21:37:03.704Z,18.92
2022-08-16T21:39:51.584Z,18.88
2022-08-16T21:42:45.196Z,18.83
2022-08-16T21:45:32.394Z,18.80
2022-08-16T21:48:19.873Z,18.81
2022-08-16T21:51:11.481Z,18.84
2022-08-16T21:53:58.913Z,18.81
2022-08-16T21:56:46.273Z,18.79
2022-08-16T21:59:33.977Z,18.77
2022-08-16T22:02:22.954Z,18.73
2022-08-16T22:05:10.673Z,18.67
2022-08-16T22:08:01.305Z,18.61
2022-08-16T22:11:04.841Z,18.57
2022-08-16T22:13:36.825Z,18.55
2022-08-16T22:16:25.894Z,18.53
2022-08-16T22:19:13.825Z,18.54
2022-08-16T22:22:01.977Z,18.53
2022-08-16T22:24:49.627Z,18.52
2022-08-16T22:27:37.426Z,18.51
2022-08-16T22:30:25.145Z,18.46
2022-08-16T22:33:15.626Z,18.40
2022-08-16T22:36:05.018Z,18.33
2022-08-16T22:38:56.673Z,18.26
2022-08-16T22:41:43.417Z,18.21
2022-08-16T22:44:30.706Z,18.16
2022-08-16T22:47:17.969Z,18.11
2022-08-16T22:50:06.010Z,18.09
2022-08-16T22:52:56.978Z,18.09
2022-08-16T22:55:43.841Z,18.09
2022-08-16T22:58:37.117Z,18.05
2022-08-16T23:01:23.116Z,17.99
2022-08-16T23:04:10.328Z,17.95
2022-08-16T23:06:57.819Z,17.89
2022-08-16T23:09:45.170Z,17.89
2022-08-16T23:12:32.834Z,17.86
2022-08-16T23:15:23.116Z,17.81
2022-08-16T23:18:11.792Z,17.78
2022-08-16T23:21:01.403Z,17.72
2022-08-16T23:23:49.193Z,17.73
2022-08-16T23:26:45.743Z,17.73
2022-08-16T23:29:26.737Z,17.70
2022-08-16T23:32:15.106Z,17.67
2022-08-16T23:35:06.201Z,17.62
2022-08-16T23:37:55.170Z,17.57
2022-08-16T23:40:44.249Z,17.54
2022-08-16T23:43:33.721Z,17.49
2022-08-16T23:46:21.281Z,17.45
2022-08-16T23:49:56.239Z,17.45
2022-08-16T23:51:59.409Z,17.44
2022-08-16T23:54:46.897Z,17.40
2022-08-16T23:57:34.250Z,17.35
